This demonstration page uses our WeatherBlox Daily Observations layout. Learn more.

Left ArrowRight Arrow

38.83388, -104.82136

Hourly Observations for December 1, 2022

Temp ( °F °C ) Dew Point ( °F °C ) Humidity (%) Winds ( mph kmh ) Pressure ( in mb ) Visibility ( mi km ) Precip ( " mm )
12:55 am 00:55 Clear 40 4.5 6 -14.4 24 24 S 17 28 N/A 10 16 0.00 0.00
1:55 am 01:55 Clear 41 4.9 6 -14.5 23 23 S 9 15 N/A 10 16 0.00 0.00
2:55 am 02:55 Clear 42 5.4 8 -13.6 24 24 SSW 15 24 N/A 10 16 0.00 0.00
3:55 am 03:55 Clear 35 1.7 13 -10.8 39 39 Calm N/A 10 16 0.00 0.00
4:55 am 04:55 Clear 36 2 13 -10.8 38 38 NNW 3 6 N/A 10 16 0.00 0.00
5:55 am 05:55 Clear 35 1.9 11 -11.6 36 36 NNW 3 6 N/A 10 16 0.00 0.00
6:55 am 06:55 Clear 37 2.9 12 -11.1 35 35 Calm N/A 10 16 0.00 0.00
7:55 am 07:55 Sunny 40 4.5 12 -11.2 31 31 Calm N/A 10 16 0.00 0.00
8:55 am 08:55 Sunny 48 8.7 11 -11.9 22 22 SSE 12 19 N/A 10 16 0.00 0.00
9:24 am 09:24 Sunny 48 9 10 -12 21 21 SE 14 22 N/A 10 16 0.00 0.00
9:55 am 09:55 Sunny 49 9.2 12 -10.9 23 23 SE 6 9 N/A 10 16 0.00 0.00
10:55 am 10:55 Sunny 52 11.1 11 -11.7 19 19 SSE 15 24 N/A 10 16 0.00 0.00
11:31 am 11:31 Sunny 52 11 10 -12 19 19 ESE 15 24 N/A 10 16 0.00 0.00
11:36 am 11:36 Sunny 54 12 12 -11 19 19 SSE 21 33 N/A 10 16 0.00 0.00
11:55 am 11:55 Sunny 53 11.8 11 -11.8 18 18 SSE 15 24 N/A 10 16 0.00 0.00
12:55 pm 12:55 Sunny 53 11.7 11 -11.9 18 18 SSE 16 26 N/A 10 16 0.00 0.00
12:59 pm 12:59 Sunny 54 12 14 -10 20 20 ESE 13 20 N/A 10 16 0.00 0.00
1:03 pm 13:03 Sunny 52 11 16 -9 24 24 SSE 20 31 N/A 10 16 0.00 0.00
1:09 pm 13:09 Sunny 54 12 10 -12 17 17 SE 20 31 N/A 10 16 0.00 0.00
1:41 pm 13:41 Sunny 54 12 16 -9 22 22 ESE 16 26 N/A 10 16 0.00 0.00
1:49 pm 13:49 Sunny 54 12 14 -10 20 20 SSE 22 35 N/A 10 16 0.00 0.00
1:55 pm 13:55 Sunny 55 12.6 11 -11.8 17 17 SSE 20 31 N/A 10 16 0.00 0.00
2:55 pm 14:55 Sunny 52 11 11 -11.8 19 19 E 5 7 N/A 10 16 0.00 0.00
3:55 pm 15:55 Sunny 52 11.2 9 -13 17 17 NE 6 9 N/A 10 16 0.00 0.00
4:55 pm 16:55 Clear 48 9 11 -11.6 22 22 W 7 11 N/A 10 16 0.00 0.00
5:55 pm 17:55 Clear 51 10.3 9 -13 18 18 WSW 6 9 N/A 10 16 0.00 0.00
6:55 pm 18:55 Mostly Cloudy 48 9.1 10 -12.1 21 21 Calm N/A 10 16 0.00 0.00
7:22 pm 19:22 Cloudy 50 10 10 -12 20 20 SSW 12 19 N/A 10 16 0.00 0.00
7:25 pm 19:25 Mostly Cloudy 52 11 9 -13 17 17 W 15 24 N/A 10 16 0.00 0.00
7:57 pm 19:57 Clear 52 11 10 -12 19 19 S 13 20 N/A 10 16 0.00 0.00
8:08 pm 20:08 Mostly Clear 52 11 10 -12 19 19 NNE 28 44 N/A 10 16 0.00 0.00
8:16 pm 20:16 Partly Cloudy 52 11 10 -12 19 19 SSE 16 26 N/A 10 16 0.00 0.00
8:21 pm 20:21 Partly Cloudy 52 11 10 -12 19 19 NNE 16 26 N/A 10 16 0.00 0.00
8:28 pm 20:28 Mostly Clear 52 11 10 -12 19 19 N 17 28 N/A 10 16 0.00 0.00
8:32 pm 20:32 Mostly Clear 52 11 10 -12 19 19 WNW 21 33 N/A 10 16 0.00 0.00
8:35 pm 20:35 Mostly Clear 52 11 10 -12 19 19 NNW 21 33 N/A 10 16 0.00 0.00
8:41 pm 20:41 Clear 52 11 12 -11 20 20 N 16 26 N/A 10 16 0.00 0.00
8:45 pm 20:45 Clear 50 10 10 -12 20 20 NNW 28 44 N/A 10 16 0.00 0.00
8:55 pm 20:55 Clear 50 10.1 13 -10.7 22 22 N 22 35 N/A 10 16 0.00 0.00
8:58 pm 20:58 Clear 50 10 12 -11 21 21 NNW 22 35 N/A 10 16 0.00 0.00
9:02 pm 21:02 Clear 50 10 12 -11 21 21 W 21 33 N/A 10 16 0.00 0.00
9:06 pm 21:06 Clear 52 11 12 -11 20 20 N 28 44 N/A 10 16 0.00 0.00
9:16 pm 21:16 Clear 52 11 12 -11 20 20 N 30 48 N/A 10 16 0.00 0.00
9:42 pm 21:42 Clear 52 11 9 -13 17 17 NNE 38 61 N/A 10 16 0.00 0.00
9:55 pm 21:55 Clear 51 10.8 11 -11.9 19 19 N 28 44 N/A 10 16 0.00 0.00
10:10 pm 22:10 Clear 52 11 12 -11 20 20 N 20 31 N/A 10 16 0.00 0.00
10:14 pm 22:14 Clear 52 11 12 -11 20 20 N 24 39 N/A 10 16 0.00 0.00
10:24 pm 22:24 Clear 52 11 12 -11 20 20 WNW 31 50 N/A 10 16 0.00 0.00
10:27 pm 22:27 Clear 52 11 12 -11 20 20 NW 39 63 N/A 10 16 0.00 0.00
10:37 pm 22:37 Clear 52 11 12 -11 20 20 NNW 35 56 N/A 10 16 0.00 0.00
10:45 pm 22:45 Clear 52 11 12 -11 20 20 NNW 24 39 N/A 10 16 0.00 0.00
10:55 pm 22:55 Clear 51 10.6 13 -10.8 21 21 W 24 39 N/A 10 16 0.00 0.00
10:59 pm 22:59 Clear 52 11 12 -11 20 20 WNW 30 48 N/A 10 16 0.00 0.00
11:18 pm 23:18 Clear 50 10 14 -10 23 23 W 22 35 N/A 10 16 0.00 0.00
11:28 pm 23:28 Clear 50 10 14 -10 23 23 N 28 44 N/A 10 16 0.00 0.00
11:33 pm 23:33 Clear 50 10 14 -10 23 23 NW 32 52 N/A 10 16 0.00 0.00
11:55 pm 23:55 Clear 50 10.1 13 -10.7 22 22 N 29 46 N/A 10 16 0.00 0.00
11:56 pm 23:56 Clear 50 10 12 -11 21 21 NW 28 44 N/A 10 16 0.00 0.00

Powered by AerisWeather